sensor_id;sensor_type;location;lat;lon;timestamp;temperature;humidity
36458;DHT22;22480;50.546;12.292;2022-08-24T00:01:15;14.00;99.90
36458;DHT22;22480;50.546;12.292;2022-08-24T00:03:42;13.90;99.90
36458;DHT22;22480;50.546;12.292;2022-08-24T00:06:12;13.80;99.90
36458;DHT22;22480;50.546;12.292;2022-08-24T00:08:39;13.80;99.90
36458;DHT22;22480;50.546;12.292;2022-08-24T00:11:06;13.80;99.90
36458;DHT22;22480;50.546;12.292;2022-08-24T00:13:32;13.70;99.90
36458;DHT22;22480;50.546;12.292;2022-08-24T00:15:58;13.70;99.90
36458;DHT22;22480;50.546;12.292;2022-08-24T00:18:24;13.70;99.90
36458;DHT22;22480;50.546;12.292;2022-08-24T00:20:50;13.70;99.90
36458;DHT22;22480;50.546;12.292;2022-08-24T00:23:16;13.60;99.90
36458;DHT22;22480;50.546;12.292;2022-08-24T00:25:42;13.60;99.90
36458;DHT22;22480;50.546;12.292;2022-08-24T00:28:08;13.50;99.90
36458;DHT22;22480;50.546;12.292;2022-08-24T00:30:34;13.40;99.90
36458;DHT22;22480;50.546;12.292;2022-08-24T00:33:00;13.30;99.90
36458;DHT22;22480;50.546;12.292;2022-08-24T00:35:26;13.30;99.90
36458;DHT22;22480;50.546;12.292;2022-08-24T00:37:53;13.20;99.90
36458;DHT22;22480;50.546;12.292;2022-08-24T00:40:24;13.20;99.90
36458;DHT22;22480;50.546;12.292;2022-08-24T00:42:50;13.10;99.90
36458;DHT22;22480;50.546;12.292;2022-08-24T00:45:17;12.90;99.90
36458;DHT22;22480;50.546;12.292;2022-08-24T00:50:29;12.70;99.90
36458;DHT22;22480;50.546;12.292;2022-08-24T00:52:59;12.70;99.90
36458;DHT22;22480;50.546;12.292;2022-08-24T00:55:34;12.70;99.90
36458;DHT22;22480;50.546;12.292;2022-08-24T00:58:03;12.70;99.90
36458;DHT22;22480;50.546;12.292;2022-08-24T01:00:34;12.70;99.90
36458;DHT22;22480;50.546;12.292;2022-08-24T01:03:04;12.70;99.90
36458;DHT22;22480;50.546;12.292;2022-08-24T01:05:35;12.70;99.90
36458;DHT22;22480;50.546;12.292;2022-08-24T01:08:04;12.60;99.90
36458;DHT22;22480;50.546;12.292;2022-08-24T01:10:35;12.50;99.90
36458;DHT22;22480;50.546;12.292;2022-08-24T01:13:04;12.50;99.90
36458;DHT22;22480;50.546;12.292;2022-08-24T01:15:41;12.50;99.90
36458;DHT22;22480;50.546;12.292;2022-08-24T01:18:11;12.60;99.90
36458;DHT22;22480;50.546;12.292;2022-08-24T01:21:44;12.60;99.90
36458;DHT22;22480;50.546;12.292;2022-08-24T01:24:02;12.70;99.90
36458;DHT22;22480;50.546;12.292;2022-08-24T01:26:49;12.70;99.90
36458;DHT22;22480;50.546;12.292;2022-08-24T01:29:18;12.80;99.90
36458;DHT22;22480;50.546;12.292;2022-08-24T01:31:45;12.60;99.90
36458;DHT22;22480;50.546;12.292;2022-08-24T01:34:11;12.60;99.90
36458;DHT22;22480;50.546;12.292;2022-08-24T01:36:43;12.60;99.90
36458;DHT22;22480;50.546;12.292;2022-08-24T01:41:39;12.50;99.90
36458;DHT22;22480;50.546;12.292;2022-08-24T01:44:05;12.30;99.90
36458;DHT22;22480;50.546;12.292;2022-08-24T01:46:32;12.20;99.90
36458;DHT22;22480;50.546;12.292;2022-08-24T01:48:58;12.20;99.90
36458;DHT22;22480;50.546;12.292;2022-08-24T01:51:28;12.00;99.90
36458;DHT22;22480;50.546;12.292;2022-08-24T01:53:54;12.20;99.90
36458;DHT22;22480;50.546;12.292;2022-08-24T01:56:19;12.20;99.90
36458;DHT22;22480;50.546;12.292;2022-08-24T01:58:47;12.30;99.90
36458;DHT22;22480;50.546;12.292;2022-08-24T02:01:15;12.30;99.90
36458;DHT22;22480;50.546;12.292;2022-08-24T02:03:42;12.40;99.90
36458;DHT22;22480;50.546;12.292;2022-08-24T02:06:09;12.30;99.90
36458;DHT22;22480;50.546;12.292;2022-08-24T02:08:35;12.40;99.90
36458;DHT22;22480;50.546;12.292;2022-08-24T02:11:05;12.20;99.90
36458;DHT22;22480;50.546;12.292;2022-08-24T02:13:33;12.30;99.90
36458;DHT22;22480;50.546;12.292;2022-08-24T02:16:00;12.30;99.90
36458;DHT22;22480;50.546;12.292;2022-08-24T02:18:28;12.30;99.90
36458;DHT22;22480;50.546;12.292;2022-08-24T02:20:54;12.30;99.90
36458;DHT22;22480;50.546;12.292;2022-08-24T02:23:20;12.20;99.90
36458;DHT22;22480;50.546;12.292;2022-08-24T02:25:47;12.20;99.90
36458;DHT22;22480;50.546;12.292;2022-08-24T02:28:13;12.10;99.90
36458;DHT22;22480;50.546;12.292;2022-08-24T02:30:39;11.90;99.90
36458;DHT22;22480;50.546;12.292;2022-08-24T02:33:06;12.00;99.90
36458;DHT22;22480;50.546;12.292;2022-08-24T02:35:33;11.90;99.90
36458;DHT22;22480;50.546;12.292;2022-08-24T02:37:59;11.80;99.90
36458;DHT22;22480;50.546;12.292;2022-08-24T02:40:27;11.90;99.90
36458;DHT22;22480;50.546;12.292;2022-08-24T02:42:54;11.70;99.90
36458;DHT22;22480;50.546;12.292;2022-08-24T02:45:20;11.80;99.90
36458;DHT22;22480;50.546;12.292;2022-08-24T02:47:46;11.70;99.90
36458;DHT22;22480;50.546;12.292;2022-08-24T02:50:14;11.60;99.90
36458;DHT22;22480;50.546;12.292;2022-08-24T02:52:41;11.70;99.90
36458;DHT22;22480;50.546;12.292;2022-08-24T02:55:10;11.70;99.90
36458;DHT22;22480;50.546;12.292;2022-08-24T02:57:37;11.70;99.90
36458;DHT22;22480;50.546;12.292;2022-08-24T03:00:07;11.60;99.90
36458;DHT22;22480;50.546;12.292;2022-08-24T03:02:35;11.50;99.90
36458;DHT22;22480;50.546;12.292;2022-08-24T03:05:00;11.50;99.90
36458;DHT22;22480;50.546;12.292;2022-08-24T03:07:26;11.40;99.90
36458;DHT22;22480;50.546;12.292;2022-08-24T03:09:53;11.40;99.90
36458;DHT22;22480;50.546;12.292;2022-08-24T03:12:18;11.40;99.90
36458;DHT22;22480;50.546;12.292;2022-08-24T03:14:44;11.40;99.90
36458;DHT22;22480;50.546;12.292;2022-08-24T03:17:10;11.40;99.90
36458;DHT22;22480;50.546;12.292;2022-08-24T03:19:36;11.40;99.90
36458;DHT22;22480;50.546;12.292;2022-08-24T03:22:02;11.40;99.90
36458;DHT22;22480;50.546;12.292;2022-08-24T03:24:28;11.50;99.90
36458;DHT22;22480;50.546;12.292;2022-08-24T03:26:54;11.50;99.90
36458;DHT22;22480;50.546;12.292;2022-08-24T03:29:20;11.40;99.90
36458;DHT22;22480;50.546;12.292;2022-08-24T03:31:46;11.50;99.90
36458;DHT22;22480;50.546;12.292;2022-08-24T03:34:13;11.60;99.90
36458;DHT22;22480;50.546;12.292;2022-08-24T03:36:41;11.50;99.90
36458;DHT22;22480;50.546;12.292;2022-08-24T03:39:13;11.60;99.90
36458;DHT22;22480;50.546;12.292;2022-08-24T03:41:39;11.60;99.90
36458;DHT22;22480;50.546;12.292;2022-08-24T03:44:05;11.60;99.90
36458;DHT22;22480;50.546;12.292;2022-08-24T03:46:34;11.50;99.90
36458;DHT22;22480;50.546;12.292;2022-08-24T03:49:02;11.40;99.90
36458;DHT22;22480;50.546;12.292;2022-08-24T03:51:29;11.20;99.90
36458;DHT22;22480;50.546;12.292;2022-08-24T03:53:56;11.20;99.90
36458;DHT22;22480;50.546;12.292;2022-08-24T03:56:25;11.20;99.90
36458;DHT22;22480;50.546;12.292;2022-08-24T03:58:52;11.20;99.90
36458;DHT22;22480;50.546;12.292;2022-08-24T04:01:20;11.10;99.90
36458;DHT22;22480;50.546;12.292;2022-08-24T04:03:47;11.20;99.90
36458;DHT22;22480;50.546;12.292;2022-08-24T04:06:16;11.10;99.90
36458;DHT22;22480;50.546;12.292;2022-08-24T04:08:43;11.10;99.90
36458;DHT22;22480;50.546;12.292;2022-08-24T04:11:16;11.30;99.90
36458;DHT22;22480;50.546;12.292;2022-08-24T04:13:44;11.30;99.90
36458;DHT22;22480;50.546;12.292;2022-08-24T04:16:13;11.40;99.90
36458;DHT22;22480;50.546;12.292;2022-08-24T04:18:41;11.30;99.90
36458;DHT22;22480;50.546;12.292;2022-08-24T04:23:46;11.20;99.90
36458;DHT22;22480;50.546;12.292;2022-08-24T04:26:18;11.20;99.90
36458;DHT22;22480;50.546;12.292;2022-08-24T04:28:44;11.20;99.90
36458;DHT22;22480;50.546;12.292;2022-08-24T04:31:10;11.20;99.90
36458;DHT22;22480;50.546;12.292;2022-08-24T04:33:40;11.20;99.90
36458;DHT22;22480;50.546;12.292;2022-08-24T04:36:08;11.30;99.90
36458;DHT22;22480;50.546;12.292;2022-08-24T04:38:36;11.50;99.90
36458;DHT22;22480;50.546;12.292;2022-08-24T04:41:25;11.50;99.90
36458;DHT22;22480;50.546;12.292;2022-08-24T04:43:51;11.60;99.90
36458;DHT22;22480;50.546;12.292;2022-08-24T04:46:18;11.60;99.90
36458;DHT22;22480;50.546;12.292;2022-08-24T04:48:46;11.70;99.90
36458;DHT22;22480;50.546;12.292;2022-08-24T04:51:14;11.80;99.90
36458;DHT22;22480;50.546;12.292;2022-08-24T04:53:43;11.90;99.90
36458;DHT22;22480;50.546;12.292;2022-08-24T04:56:13;11.90;99.90
36458;DHT22;22480;50.546;12.292;2022-08-24T04:58:40;11.90;99.90
36458;DHT22;22480;50.546;12.292;2022-08-24T05:01:13;11.90;99.90
36458;DHT22;22480;50.546;12.292;2022-08-24T05:03:42;11.90;99.90
36458;DHT22;22480;50.546;12.292;2022-08-24T05:06:11;12.00;99.90
36458;DHT22;22480;50.546;12.292;2022-08-24T05:08:37;12.10;99.90
36458;DHT22;22480;50.546;12.292;2022-08-24T05:11:04;12.20;99.90
36458;DHT22;22480;50.546;12.292;2022-08-24T05:13:37;12.20;99.90
36458;DHT22;22480;50.546;12.292;2022-08-24T05:16:11;12.30;99.90
36458;DHT22;22480;50.546;12.292;2022-08-24T05:18:38;12.40;99.90
36458;DHT22;22480;50.546;12.292;2022-08-24T05:21:10;12.40;99.90
36458;DHT22;22480;50.546;12.292;2022-08-24T05:23:36;12.40;99.90
36458;DHT22;22480;50.546;12.292;2022-08-24T05:26:18;12.50;99.90
36458;DHT22;22480;50.546;12.292;2022-08-24T05:28:45;12.60;99.90
36458;DHT22;22480;50.546;12.292;2022-08-24T05:31:18;12.70;99.90
36458;DHT22;22480;50.546;12.292;2022-08-24T05:33:45;12.80;99.90
36458;DHT22;22480;50.546;12.292;2022-08-24T05:36:23;13.20;99.90
36458;DHT22;22480;50.546;12.292;2022-08-24T05:38:51;14.00;99.90
36458;DHT22;22480;50.546;12.292;2022-08-24T05:41:18;14.80;99.90
36458;DHT22;22480;50.546;12.292;2022-08-24T05:43:46;15.40;99.90
36458;DHT22;22480;50.546;12.292;2022-08-24T05:46:12;15.90;99.90
36458;DHT22;22480;50.546;12.292;2022-08-24T05:48:38;16.30;99.90
36458;DHT22;22480;50.546;12.292;2022-08-24T05:51:07;16.60;99.90
36458;DHT22;22480;50.546;12.292;2022-08-24T05:53:40;16.80;99.90
36458;DHT22;22480;50.546;12.292;2022-08-24T05:56:09;17.10;99.90
36458;DHT22;22480;50.546;12.292;2022-08-24T05:58:37;17.60;99.90
36458;DHT22;22480;50.546;12.292;2022-08-24T06:01:09;18.00;99.90
36458;DHT22;22480;50.546;12.292;2022-08-24T06:03:37;18.40;99.90
36458;DHT22;22480;50.546;12.292;2022-08-24T06:06:06;18.70;99.90
36458;DHT22;22480;50.546;12.292;2022-08-24T06:08:38;18.70;99.90
36458;DHT22;22480;50.546;12.292;2022-08-24T06:11:04;18.50;99.90
36458;DHT22;22480;50.546;12.292;2022-08-24T06:13:31;18.30;99.90
36458;DHT22;22480;50.546;12.292;2022-08-24T06:16:07;18.30;99.90
36458;DHT22;22480;50.546;12.292;2022-08-24T06:18:33;18.20;99.90
36458;DHT22;22480;50.546;12.292;2022-08-24T06:21:07;18.10;99.90
36458;DHT22;22480;50.546;12.292;2022-08-24T06:23:33;18.20;99.90
36458;DHT22;22480;50.546;12.292;2022-08-24T06:26:00;18.30;99.90
36458;DHT22;22480;50.546;12.292;2022-08-24T06:28:45;18.40;99.90
36458;DHT22;22480;50.546;12.292;2022-08-24T06:31:11;18.30;99.90
36458;DHT22;22480;50.546;12.292;2022-08-24T06:33:37;18.40;99.90
36458;DHT22;22480;50.546;12.292;2022-08-24T06:36:03;18.50;99.90
36458;DHT22;22480;50.546;12.292;2022-08-24T06:38:29;18.50;99.90
36458;DHT22;22480;50.546;12.292;2022-08-24T06:40:55;18.50;99.90
36458;DHT22;22480;50.546;12.292;2022-08-24T06:43:21;18.70;99.90
36458;DHT22;22480;50.546;12.292;2022-08-24T06:45:57;18.80;99.90
36458;DHT22;22480;50.546;12.292;2022-08-24T06:48:29;18.90;99.90
36458;DHT22;22480;50.546;12.292;2022-08-24T06:50:56;19.10;99.90
36458;DHT22;22480;50.546;12.292;2022-08-24T06:53:22;19.20;99.90
36458;DHT22;22480;50.546;12.292;2022-08-24T06:55:55;19.10;99.90
36458;DHT22;22480;50.546;12.292;2022-08-24T06:58:22;19.10;99.90
36458;DHT22;22480;50.546;12.292;2022-08-24T07:00:51;19.20;99.90
36458;DHT22;22480;50.546;12.292;2022-08-24T07:03:18;19.60;99.90
36458;DHT22;22480;50.546;12.292;2022-08-24T07:05:53;20.10;99.90
36458;DHT22;22480;50.546;12.292;2022-08-24T07:08:34;20.60;99.90
36458;DHT22;22480;50.546;12.292;2022-08-24T07:11:06;21.30;99.90
36458;DHT22;22480;50.546;12.292;2022-08-24T07:13:32;21.60;99.90
36458;DHT22;22480;50.546;12.292;2022-08-24T07:15:59;21.40;99.90
36458;DHT22;22480;50.546;12.292;2022-08-24T07:18:26;21.10;99.90
36458;DHT22;22480;50.546;12.292;2022-08-24T07:20:52;21.30;99.90
36458;DHT22;22480;50.546;12.292;2022-08-24T07:23:34;21.50;99.90
36458;DHT22;22480;50.546;12.292;2022-08-24T07:26:09;21.60;99.90
36458;DHT22;22480;50.546;12.292;2022-08-24T07:28:38;21.50;99.90
36458;DHT22;22480;50.546;12.292;2022-08-24T07:31:06;21.30;99.90
36458;DHT22;22480;50.546;12.292;2022-08-24T07:33:39;21.00;99.90
36458;DHT22;22480;50.546;12.292;2022-08-24T07:36:05;20.90;99.90
36458;DHT22;22480;50.546;12.292;2022-08-24T07:38:31;20.70;99.90
36458;DHT22;22480;50.546;12.292;2022-08-24T07:40:59;20.60;99.90
36458;DHT22;22480;50.546;12.292;2022-08-24T07:43:25;20.80;99.90
36458;DHT22;22480;50.546;12.292;2022-08-24T07:45:52;21.30;99.90
36458;DHT22;22480;50.546;12.292;2022-08-24T07:48:19;21.50;99.90
36458;DHT22;22480;50.546;12.292;2022-08-24T07:50:46;21.50;99.90
36458;DHT22;22480;50.546;12.292;2022-08-24T07:53:12;21.60;99.90
36458;DHT22;22480;50.546;12.292;2022-08-24T07:55:38;21.70;99.90
36458;DHT22;22480;50.546;12.292;2022-08-24T07:58:04;21.90;99.90
36458;DHT22;22480;50.546;12.292;2022-08-24T08:00:31;22.00;99.90
36458;DHT22;22480;50.546;12.292;2022-08-24T08:03:00;22.10;99.90
36458;DHT22;22480;50.546;12.292;2022-08-24T08:05:29;22.30;99.90
36458;DHT22;22480;50.546;12.292;2022-08-24T08:07:55;22.50;99.90
36458;DHT22;22480;50.546;12.292;2022-08-24T08:10:21;23.00;99.90
36458;DHT22;22480;50.546;12.292;2022-08-24T08:12:50;23.00;99.90
36458;DHT22;22480;50.546;12.292;2022-08-24T08:15:15;23.10;99.90
36458;DHT22;22480;50.546;12.292;2022-08-24T08:17:53;23.40;99.90
36458;DHT22;22480;50.546;12.292;2022-08-24T08:20:19;24.00;99.90
36458;DHT22;22480;50.546;12.292;2022-08-24T08:22:45;24.30;99.90
36458;DHT22;22480;50.546;12.292;2022-08-24T08:26:06;24.50;99.90
36458;DHT22;22480;50.546;12.292;2022-08-24T08:28:44;24.70;99.90
36458;DHT22;22480;50.546;12.292;2022-08-24T08:31:10;24.60;99.90
36458;DHT22;22480;50.546;12.292;2022-08-24T08:33:36;24.30;99.90
36458;DHT22;22480;50.546;12.292;2022-08-24T08:36:06;23.80;99.90
36458;DHT22;22480;50.546;12.292;2022-08-24T08:38:38;23.70;99.90
36458;DHT22;22480;50.546;12.292;2022-08-24T08:50:43;23.90;99.90
36458;DHT22;22480;50.546;12.292;2022-08-24T08:59:02;24.40;99.90
36458;DHT22;22480;50.546;12.292;2022-08-24T09:07:23;24.80;99.90
36458;DHT22;22480;50.546;12.292;2022-08-24T09:15:54;24.90;99.90
36458;DHT22;22480;50.546;12.292;2022-08-24T09:21:12;25.00;99.90
36458;DHT22;22480;50.546;12.292;2022-08-24T09:27:11;26.10;99.90
36458;DHT22;22480;50.546;12.292;2022-08-24T09:35:18;25.50;99.30
36458;DHT22;22480;50.546;12.292;2022-08-24T09:46:11;26.60;98.00
36458;DHT22;22480;50.546;12.292;2022-08-24T09:49:01;27.00;96.60
36458;DHT22;22480;50.546;12.292;2022-08-24T10:08:53;25.90;95.40
36458;DHT22;22480;50.546;12.292;2022-08-24T10:20:21;26.30;96.20
36458;DHT22;22480;50.546;12.292;2022-08-24T10:22:56;26.60;96.10
36458;DHT22;22480;50.546;12.292;2022-08-24T10:25:32;26.20;95.50
36458;DHT22;22480;50.546;12.292;2022-08-24T10:30:59;26.50;95.10
36458;DHT22;22480;50.546;12.292;2022-08-24T10:33:34;25.90;95.00
36458;DHT22;22480;50.546;12.292;2022-08-24T10:38:49;26.90;95.50
36458;DHT22;22480;50.546;12.292;2022-08-24T10:44:47;27.10;92.50
36458;DHT22;22480;50.546;12.292;2022-08-24T10:47:19;26.90;93.70
36458;DHT22;22480;50.546;12.292;2022-08-24T10:53:37;26.60;93.90
36458;DHT22;22480;50.546;12.292;2022-08-24T10:55:38;26.30;93.80
36458;DHT22;22480;50.546;12.292;2022-08-24T11:00:53;26.20;94.20
36458;DHT22;22480;50.546;12.292;2022-08-24T11:03:20;25.90;95.30
36458;DHT22;22480;50.546;12.292;2022-08-24T11:05:52;26.40;94.00
36458;DHT22;22480;50.546;12.292;2022-08-24T11:08:24;27.00;93.30
36458;DHT22;22480;50.546;12.292;2022-08-24T11:11:09;27.90;92.50
36458;DHT22;22480;50.546;12.292;2022-08-24T11:13:48;28.30;91.50
36458;DHT22;22480;50.546;12.292;2022-08-24T11:16:24;28.70;90.30
36458;DHT22;22480;50.546;12.292;2022-08-24T11:18:55;28.50;87.20
36458;DHT22;22480;50.546;12.292;2022-08-24T11:24:13;27.80;88.10
36458;DHT22;22480;50.546;12.292;2022-08-24T11:27:30;28.30;85.90
36458;DHT22;22480;50.546;12.292;2022-08-24T11:32:46;29.60;82.20
36458;DHT22;22480;50.546;12.292;2022-08-24T11:35:22;30.10;79.10
36458;DHT22;22480;50.546;12.292;2022-08-24T11:37:50;30.90;76.90
36458;DHT22;22480;50.546;12.292;2022-08-24T11:40:18;31.40;73.40
36458;DHT22;22480;50.546;12.292;2022-08-24T11:48:17;30.70;74.30
36458;DHT22;22480;50.546;12.292;2022-08-24T11:51:04;30.80;71.90
36458;DHT22;22480;50.546;12.292;2022-08-24T11:56:54;31.60;70.90
36458;DHT22;22480;50.546;12.292;2022-08-24T12:02:07;31.90;67.00
36458;DHT22;22480;50.546;12.292;2022-08-24T12:10:49;30.90;69.40
36458;DHT22;22480;50.546;12.292;2022-08-24T12:13:28;32.10;65.80
36458;DHT22;22480;50.546;12.292;2022-08-24T12:19:05;31.90;67.40
36458;DHT22;22480;50.546;12.292;2022-08-24T12:21:37;32.80;65.80
36458;DHT22;22480;50.546;12.292;2022-08-24T12:24:32;33.90;66.40
36458;DHT22;22480;50.546;12.292;2022-08-24T12:27:13;34.20;63.00
36458;DHT22;22480;50.546;12.292;2022-08-24T12:29:44;32.80;62.20
36458;DHT22;22480;50.546;12.292;2022-08-24T12:32:17;32.80;62.90
36458;DHT22;22480;50.546;12.292;2022-08-24T12:40:39;33.10;62.30
36458;DHT22;22480;50.546;12.292;2022-08-24T12:43:12;34.10;63.90
36458;DHT22;22480;50.546;12.292;2022-08-24T12:45:39;34.90;61.50
36458;DHT22;22480;50.546;12.292;2022-08-24T12:48:30;34.40;57.20
36458;DHT22;22480;50.546;12.292;2022-08-24T12:51:06;34.30;60.80
36458;DHT22;22480;50.546;12.292;2022-08-24T12:53:41;34.60;58.60
36458;DHT22;22480;50.546;12.292;2022-08-24T12:59:02;34.50;57.60
36458;DHT22;22480;50.546;12.292;2022-08-24T13:01:37;34.40;56.80
36458;DHT22;22480;50.546;12.292;2022-08-24T13:04:11;34.60;55.70
36458;DHT22;22480;50.546;12.292;2022-08-24T13:06:58;35.50;58.00
36458;DHT22;22480;50.546;12.292;2022-08-24T13:09:33;35.40;53.90
36458;DHT22;22480;50.546;12.292;2022-08-24T13:25:50;34.50;55.50
36458;DHT22;22480;50.546;12.292;2022-08-24T13:33:57;35.30;57.60
36458;DHT22;22480;50.546;12.292;2022-08-24T13:47:04;35.10;54.50
36458;DHT22;22480;50.546;12.292;2022-08-24T13:55:05;35.90;54.50
36458;DHT22;22480;50.546;12.292;2022-08-24T14:03:03;31.30;63.00
36458;DHT22;22480;50.546;12.292;2022-08-24T14:11:17;29.40;68.20
36458;DHT22;22480;50.546;12.292;2022-08-24T14:17:06;31.60;63.60
36458;DHT22;22480;50.546;12.292;2022-08-24T14:22:38;34.60;58.20
36458;DHT22;22480;50.546;12.292;2022-08-24T14:25:24;34.60;57.50
36458;DHT22;22480;50.546;12.292;2022-08-24T14:40:56;33.90;57.70
36458;DHT22;22480;50.546;12.292;2022-08-24T14:43:25;33.20;60.20
36458;DHT22;22480;50.546;12.292;2022-08-24T14:49:15;31.90;61.50
36458;DHT22;22480;50.546;12.292;2022-08-24T15:00:21;27.30;72.70
36458;DHT22;22480;50.546;12.292;2022-08-24T15:08:12;26.10;78.60
36458;DHT22;22480;50.546;12.292;2022-08-24T15:11:12;26.10;79.00
36458;DHT22;22480;50.546;12.292;2022-08-24T15:14:03;26.10;77.90
36458;DHT22;22480;50.546;12.292;2022-08-24T15:19:17;28.20;75.30
36458;DHT22;22480;50.546;12.292;2022-08-24T15:22:07;29.90;70.80
36458;DHT22;22480;50.546;12.292;2022-08-24T15:24:49;31.30;66.10
36458;DHT22;22480;50.546;12.292;2022-08-24T15:30:06;31.50;63.10
36458;DHT22;22480;50.546;12.292;2022-08-24T15:35:40;29.90;66.30
36458;DHT22;22480;50.546;12.292;2022-08-24T15:40:53;30.90;63.10
36458;DHT22;22480;50.546;12.292;2022-08-24T15:43:26;31.70;63.00
36458;DHT22;22480;50.546;12.292;2022-08-24T15:45:54;32.90;62.60
36458;DHT22;22480;50.546;12.292;2022-08-24T15:48:25;33.30;59.30
36458;DHT22;22480;50.546;12.292;2022-08-24T15:50:53;33.70;58.90
36458;DHT22;22480;50.546;12.292;2022-08-24T15:53:37;34.10;57.60
36458;DHT22;22480;50.546;12.292;2022-08-24T15:56:30;34.40;59.20
36458;DHT22;22480;50.546;12.292;2022-08-24T16:05:18;36.10;57.30
36458;DHT22;22480;50.546;12.292;2022-08-24T16:08:05;36.00;57.30
36458;DHT22;22480;50.546;12.292;2022-08-24T16:10:47;34.90;56.10
36458;DHT22;22480;50.546;12.292;2022-08-24T16:13:27;34.80;58.50
36458;DHT22;22480;50.546;12.292;2022-08-24T16:18:51;33.20;59.80
36458;DHT22;22480;50.546;12.292;2022-08-24T16:23:53;32.70;60.00
36458;DHT22;22480;50.546;12.292;2022-08-24T16:26:27;32.70;60.60
36458;DHT22;22480;50.546;12.292;2022-08-24T16:28:55;32.50;60.30
36458;DHT22;22480;50.546;12.292;2022-08-24T16:34:21;32.50;61.20
36458;DHT22;22480;50.546;12.292;2022-08-24T16:36:48;32.10;59.90
36458;DHT22;22480;50.546;12.292;2022-08-24T16:39:14;32.50;60.60
36458;DHT22;22480;50.546;12.292;2022-08-24T16:41:41;32.00;60.80
36458;DHT22;22480;50.546;12.292;2022-08-24T16:44:07;32.00;62.80
36458;DHT22;22480;50.546;12.292;2022-08-24T16:46:36;32.00;62.40
36458;DHT22;22480;50.546;12.292;2022-08-24T16:49:02;31.90;61.50
36458;DHT22;22480;50.546;12.292;2022-08-24T16:51:28;31.90;60.70
36458;DHT22;22480;50.546;12.292;2022-08-24T16:53:56;31.70;62.00
36458;DHT22;22480;50.546;12.292;2022-08-24T16:56:23;31.30;62.80
36458;DHT22;22480;50.546;12.292;2022-08-24T16:58:49;31.20;61.70
36458;DHT22;22480;50.546;12.292;2022-08-24T17:01:15;31.00;63.30
36458;DHT22;22480;50.546;12.292;2022-08-24T17:03:41;31.20;64.90
36458;DHT22;22480;50.546;12.292;2022-08-24T17:06:07;31.40;64.80
36458;DHT22;22480;50.546;12.292;2022-08-24T17:08:37;30.90;62.70
36458;DHT22;22480;50.546;12.292;2022-08-24T17:11:03;30.90;64.50
36458;DHT22;22480;50.546;12.292;2022-08-24T17:13:30;30.90;64.90
36458;DHT22;22480;50.546;12.292;2022-08-24T17:15:56;30.50;63.50
36458;DHT22;22480;50.546;12.292;2022-08-24T17:18:23;30.20;66.00
36458;DHT22;22480;50.546;12.292;2022-08-24T17:20:49;30.30;66.80
36458;DHT22;22480;50.546;12.292;2022-08-24T17:23:15;30.20;66.00
36458;DHT22;22480;50.546;12.292;2022-08-24T17:25:42;29.80;66.00
36458;DHT22;22480;50.546;12.292;2022-08-24T17:28:10;29.40;68.40
36458;DHT22;22480;50.546;12.292;2022-08-24T17:30:39;29.10;67.40
36458;DHT22;22480;50.546;12.292;2022-08-24T17:33:04;28.60;68.50
36458;DHT22;22480;50.546;12.292;2022-08-24T17:35:30;28.30;69.10
36458;DHT22;22480;50.546;12.292;2022-08-24T17:37:56;27.90;70.50
36458;DHT22;22480;50.546;12.292;2022-08-24T17:40:23;27.50;71.70
36458;DHT22;22480;50.546;12.292;2022-08-24T17:42:49;27.10;73.90
36458;DHT22;22480;50.546;12.292;2022-08-24T17:45:15;26.70;75.50
36458;DHT22;22480;50.546;12.292;2022-08-24T17:47:42;26.20;75.80
36458;DHT22;22480;50.546;12.292;2022-08-24T17:50:10;25.90;77.60
36458;DHT22;22480;50.546;12.292;2022-08-24T17:52:37;25.50;79.90
36458;DHT22;22480;50.546;12.292;2022-08-24T17:55:05;25.00;81.50
36458;DHT22;22480;50.546;12.292;2022-08-24T17:57:32;24.60;84.00
36458;DHT22;22480;50.546;12.292;2022-08-24T17:59:58;24.10;87.60
36458;DHT22;22480;50.546;12.292;2022-08-24T18:02:23;23.50;90.40
36458;DHT22;22480;50.546;12.292;2022-08-24T18:04:49;23.00;93.70
36458;DHT22;22480;50.546;12.292;2022-08-24T18:07:18;22.60;98.20
36458;DHT22;22480;50.546;12.292;2022-08-24T18:09:51;22.10;99.90
36458;DHT22;22480;50.546;12.292;2022-08-24T18:12:19;21.80;99.90
36458;DHT22;22480;50.546;12.292;2022-08-24T18:14:46;21.40;99.90
36458;DHT22;22480;50.546;12.292;2022-08-24T18:17:18;21.20;99.90
36458;DHT22;22480;50.546;12.292;2022-08-24T18:19:47;21.00;99.90
36458;DHT22;22480;50.546;12.292;2022-08-24T18:22:14;20.80;99.90
36458;DHT22;22480;50.546;12.292;2022-08-24T18:24:40;20.70;99.90
36458;DHT22;22480;50.546;12.292;2022-08-24T18:27:12;20.50;99.90
36458;DHT22;22480;50.546;12.292;2022-08-24T18:29:39;20.30;99.90
36458;DHT22;22480;50.546;12.292;2022-08-24T18:32:07;20.20;99.90
36458;DHT22;22480;50.546;12.292;2022-08-24T18:34:33;20.10;99.90
36458;DHT22;22480;50.546;12.292;2022-08-24T18:36:59;20.00;99.90
36458;DHT22;22480;50.546;12.292;2022-08-24T18:39:25;19.90;99.90
36458;DHT22;22480;50.546;12.292;2022-08-24T18:41:51;19.80;99.90
36458;DHT22;22480;50.546;12.292;2022-08-24T18:44:19;19.70;99.90
36458;DHT22;22480;50.546;12.292;2022-08-24T18:46:47;19.60;99.90
36458;DHT22;22480;50.546;12.292;2022-08-24T18:49:14;19.50;99.90
36458;DHT22;22480;50.546;12.292;2022-08-24T18:51:40;19.40;99.90
36458;DHT22;22480;50.546;12.292;2022-08-24T18:54:09;19.30;99.90
36458;DHT22;22480;50.546;12.292;2022-08-24T18:56:36;19.20;99.90
36458;DHT22;22480;50.546;12.292;2022-08-24T18:59:02;19.20;99.90
36458;DHT22;22480;50.546;12.292;2022-08-24T19:01:28;19.10;99.90
36458;DHT22;22480;50.546;12.292;2022-08-24T19:03:54;19.00;99.90
36458;DHT22;22480;50.546;12.292;2022-08-24T19:06:22;18.90;99.90
36458;DHT22;22480;50.546;12.292;2022-08-24T19:08:47;18.80;99.90
36458;DHT22;22480;50.546;12.292;2022-08-24T19:11:20;18.70;99.90
36458;DHT22;22480;50.546;12.292;2022-08-24T19:13:47;18.60;99.90
36458;DHT22;22480;50.546;12.292;2022-08-24T19:16:13;18.40;99.90
36458;DHT22;22480;50.546;12.292;2022-08-24T19:18:38;18.40;99.90
36458;DHT22;22480;50.546;12.292;2022-08-24T19:21:04;18.30;99.90
36458;DHT22;22480;50.546;12.292;2022-08-24T19:23:33;18.30;99.90
36458;DHT22;22480;50.546;12.292;2022-08-24T19:26:00;18.20;99.90
36458;DHT22;22480;50.546;12.292;2022-08-24T19:28:27;18.20;99.90
36458;DHT22;22480;50.546;12.292;2022-08-24T19:30:58;18.20;99.90
36458;DHT22;22480;50.546;12.292;2022-08-24T19:33:33;18.20;99.90